Time;durP1;ratioP1;P1;durP2;ratioP2;P2;SDS_P1;SDS_P2;PMS_P1;PMS_P2;Temp;Humidity;BMP_temperature;BMP_pressure;BME280_temperature;BME280_humidity;BME280_pressure;Samples;Min_cycle;Max_cycle;Signal;HPM_P1;HPM_P2
2021/10/06 00:01:05;;;;;;;0.30;0.20;;;13.70;99.90;;;;;;4977241;28;20266;-66
2021/10/06 00:03:30;;;;;;;0.30;0.20;;;13.60;99.90;;;;;;4977116;28;20267;-67
2021/10/06 00:05:57;;;;;;;0.30;0.20;;;13.70;99.90;;;;;;4977228;28;20454;-66
2021/10/06 00:08:22;;;;;;;0.30;0.20;;;13.70;99.90;;;;;;4976819;28;20187;-69
2021/10/06 00:10:48;;;;;;;3.23;2.00;;;13.80;99.90;;;;;;4977131;28;20278;-68
2021/10/06 00:13:14;;;;;;;0.30;0.10;;;13.90;99.90;;;;;;4977142;28;20183;-69
2021/10/06 00:15:44;;;;;;;1.25;0.57;;;13.80;99.90;;;;;;4977004;28;20270;-68
2021/10/06 00:18:11;;;;;;;0.30;0.10;;;14.00;99.90;;;;;;4976441;28;20703;-68
2021/10/06 00:20:37;;;;;;;0.30;0.20;;;14.10;99.90;;;;;;4977032;28;20238;-67
2021/10/06 00:23:03;;;;;;;2.00;0.73;;;14.00;99.90;;;;;;4977075;28;20175;-66
2021/10/06 00:25:28;;;;;;;0.50;0.50;;;13.90;99.90;;;;;;4976200;28;20441;-66
2021/10/06 00:27:54;;;;;;;0.30;0.20;;;13.90;99.90;;;;;;4976539;28;20622;-66
2021/10/06 00:30:19;;;;;;;0.40;0.40;;;13.80;99.90;;;;;;4976749;28;20251;-69
2021/10/06 00:32:45;;;;;;;0.30;0.20;;;13.80;99.90;;;;;;4975991;28;20194;-67
2021/10/06 00:35:11;;;;;;;0.30;0.20;;;13.80;99.90;;;;;;4977216;28;20194;-67
2021/10/06 00:37:36;;;;;;;0.30;0.20;;;13.90;99.90;;;;;;4976490;28;20246;-68
2021/10/06 00:40:04;;;;;;;0.30;0.13;;;14.10;99.90;;;;;;4977145;28;20176;-67
2021/10/06 00:42:29;;;;;;;0.30;0.20;;;14.00;99.90;;;;;;4976531;28;20175;-66
2021/10/06 00:44:55;;;;;;;0.30;0.20;;;13.90;99.90;;;;;;4976364;28;20189;-66
2021/10/06 00:47:20;;;;;;;0.30;0.20;;;14.00;99.90;;;;;;4976366;28;20415;-68
2021/10/06 00:49:46;;;;;;;0.30;0.20;;;14.00;99.90;;;;;;4975344;28;20179;-68
2021/10/06 00:52:14;;;;;;;0.50;0.37;;;14.00;99.90;;;;;;4976345;28;20528;-66
2021/10/06 00:54:40;;;;;;;0.73;0.73;;;14.10;99.90;;;;;;4975144;28;20242;-68
2021/10/06 00:57:06;;;;;;;0.30;0.20;;;14.00;99.90;;;;;;4976436;28;20603;-66
2021/10/06 00:59:31;;;;;;;0.30;0.20;;;14.00;99.90;;;;;;4975849;28;20188;-66
2021/10/06 01:01:57;;;;;;;0.30;0.20;;;13.90;99.90;;;;;;4975984;28;20513;-66
2021/10/06 01:04:23;;;;;;;0.30;0.10;;;13.70;99.90;;;;;;4976108;28;20329;-66
2021/10/06 01:06:49;;;;;;;1.23;1.13;;;13.90;99.90;;;;;;4976039;28;20176;-69
2021/10/06 01:09:14;;;;;;;0.30;0.20;;;13.90;99.90;;;;;;4975676;28;20446;-69
2021/10/06 01:11:40;;;;;;;0.30;0.20;;;13.90;99.90;;;;;;4975809;28;20184;-69
2021/10/06 01:14:06;;;;;;;0.30;0.20;;;14.00;99.90;;;;;;4975783;28;20187;-69
2021/10/06 01:16:32;;;;;;;0.30;0.10;;;13.90;99.90;;;;;;4975545;28;20617;-67
2021/10/06 01:18:58;;;;;;;0.30;0.20;;;13.90;99.90;;;;;;4975468;28;20190;-66
2021/10/06 01:21:24;;;;;;;1.33;1.23;;;13.80;99.90;;;;;;4975835;28;20175;-69
2021/10/06 01:23:51;;;;;;;0.55;0.55;;;13.80;99.90;;;;;;4975713;28;20184;-69
2021/10/06 01:26:20;;;;;;;0.30;0.20;;;13.90;99.90;;;;;;4975770;28;20190;-69
2021/10/06 01:28:48;;;;;;;0.77;0.68;;;13.90;99.90;;;;;;4975250;28;20202;-67
2021/10/06 01:31:14;;;;;;;0.30;0.20;;;13.70;99.90;;;;;;4975474;28;20206;-68
2021/10/06 01:33:40;;;;;;;0.40;0.38;;;13.80;99.90;;;;;;4975674;28;20210;-68
2021/10/06 01:36:06;;;;;;;0.67;0.30;;;13.70;99.90;;;;;;4975563;28;20629;-68
2021/10/06 01:38:32;;;;;;;0.30;0.20;;;13.50;99.90;;;;;;4975227;28;20848;-66
2021/10/06 01:40:57;;;;;;;0.40;0.20;;;13.40;99.90;;;;;;4975547;28;20180;-66
2021/10/06 01:43:23;;;;;;;0.80;0.80;;;13.30;99.90;;;;;;4973646;28;20175;-67
2021/10/06 01:45:48;;;;;;;1.13;1.13;;;13.30;99.90;;;;;;4975322;28;20179;-69
2021/10/06 01:48:14;;;;;;;0.30;0.23;;;13.30;99.90;;;;;;4975501;28;20187;-67
2021/10/06 01:50:41;;;;;;;0.30;0.20;;;13.10;99.90;;;;;;4975668;28;20179;-66
2021/10/06 01:53:12;;;;;;;0.30;0.20;;;13.00;99.90;;;;;;4974230;28;20187;-68
2021/10/06 01:55:42;;;;;;;0.60;0.60;;;13.10;99.90;;;;;;4975229;28;20176;-67
2021/10/06 01:58:14;;;;;;;0.32;0.25;;;13.10;99.90;;;;;;4974592;28;20660;-66
2021/10/06 02:00:42;;;;;;;0.30;0.20;;;13.10;99.90;;;;;;4975043;28;20203;-68
2021/10/06 02:03:08;;;;;;;0.30;0.15;;;13.00;99.90;;;;;;4975183;28;20194;-65
2021/10/06 02:05:33;;;;;;;0.50;0.40;;;12.90;99.90;;;;;;4975275;28;20266;-68
2021/10/06 02:08:06;;;;;;;1.37;1.27;;;12.80;99.90;;;;;;4975415;28;20221;-68
2021/10/06 02:10:32;;;;;;;0.30;0.20;;;12.80;99.90;;;;;;4973900;28;20201;-67
2021/10/06 02:12:59;;;;;;;0.75;0.75;;;12.70;99.90;;;;;;4975005;28;20184;-68
2021/10/06 02:15:25;;;;;;;0.30;0.20;;;12.80;99.90;;;;;;4973902;28;20194;-67
2021/10/06 02:17:51;;;;;;;0.30;0.15;;;13.00;99.90;;;;;;4974707;28;20298;-67
2021/10/06 02:20:17;;;;;;;0.68;0.68;;;13.00;99.90;;;;;;4975461;28;20223;-65
2021/10/06 02:22:43;;;;;;;0.30;0.20;;;13.00;99.90;;;;;;4975150;28;20612;-66
2021/10/06 02:25:09;;;;;;;0.30;0.20;;;13.00;99.90;;;;;;4974801;28;20524;-67
2021/10/06 02:27:35;;;;;;;0.73;0.73;;;13.20;99.90;;;;;;4974737;28;20481;-68
2021/10/06 02:30:03;;;;;;;0.50;0.50;;;13.20;99.90;;;;;;4974531;28;20187;-68
2021/10/06 02:32:28;;;;;;;0.30;0.17;;;13.30;99.90;;;;;;4974783;28;20426;-67
2021/10/06 02:34:54;;;;;;;2.33;2.23;;;13.40;99.90;;;;;;4974727;28;20632;-67
2021/10/06 02:37:19;;;;;;;1.27;1.20;;;13.40;99.90;;;;;;4974771;28;20203;-65
2021/10/06 02:39:45;;;;;;;0.30;0.20;;;13.40;99.90;;;;;;4975553;28;20254;-65
2021/10/06 02:42:11;;;;;;;0.30;0.20;;;13.50;99.90;;;;;;4976317;28;20242;-65
2021/10/06 02:44:36;;;;;;;0.30;0.20;;;13.70;99.90;;;;;;4974803;28;20202;-67
2021/10/06 02:47:03;;;;;;;0.30;0.20;;;13.80;99.90;;;;;;4973655;28;20279;-67
2021/10/06 02:49:29;;;;;;;0.50;0.47;;;13.70;99.90;;;;;;4974637;28;20194;-66
2021/10/06 02:51:55;;;;;;;0.30;0.20;;;13.50;99.90;;;;;;4974708;28;20625;-65
2021/10/06 02:54:20;;;;;;;0.33;0.30;;;13.50;99.90;;;;;;4974536;28;20192;-67
2021/10/06 02:56:46;;;;;;;0.30;0.20;;;13.60;99.90;;;;;;4977112;28;20187;-67
2021/10/06 02:59:11;;;;;;;0.30;0.20;;;13.60;99.90;;;;;;4978026;28;20187;-67
2021/10/06 03:01:37;;;;;;;1.57;1.47;;;13.60;99.90;;;;;;4977251;28;20661;-67
2021/10/06 03:04:03;;;;;;;0.30;0.20;;;13.70;99.90;;;;;;4978241;28;20632;-67
2021/10/06 03:06:28;;;;;;;0.40;0.33;;;13.60;99.90;;;;;;4977218;28;20219;-65
2021/10/06 03:08:54;;;;;;;0.30;0.20;;;13.80;99.90;;;;;;4977899;28;20624;-64
2021/10/06 03:11:21;;;;;;;1.38;1.27;;;13.80;99.90;;;;;;4978387;28;20191;-65
2021/10/06 03:13:46;;;;;;;0.40;0.30;;;13.70;99.90;;;;;;4978068;28;20179;-64
2021/10/06 03:16:12;;;;;;;0.30;0.20;;;13.60;99.90;;;;;;4978173;28;20183;-67
2021/10/06 03:18:37;;;;;;;2.47;2.27;;;13.70;99.90;;;;;;4977891;28;20298;-69
2021/10/06 03:21:03;;;;;;;1.43;1.33;;;13.80;99.90;;;;;;4977924;28;20199;-68
2021/10/06 03:23:28;;;;;;;0.50;0.50;;;13.60;99.90;;;;;;4977889;28;20540;-66
2021/10/06 03:25:54;;;;;;;1.60;1.20;;;13.70;99.90;;;;;;4977892;28;20234;-65
2021/10/06 03:28:20;;;;;;;0.30;0.17;;;13.60;99.90;;;;;;4977540;28;20206;-68
2021/10/06 03:30:45;;;;;;;0.40;0.40;;;13.50;99.90;;;;;;4977711;28;20270;-69
2021/10/06 03:33:11;;;;;;;1.43;1.33;;;13.40;99.90;;;;;;4977705;28;20230;-67
2021/10/06 03:35:36;;;;;;;0.40;0.30;;;13.40;99.90;;;;;;4977554;28;20219;-68
2021/10/06 03:38:02;;;;;;;19.23;1.27;;;13.20;99.90;;;;;;4977344;28;20210;-64
2021/10/06 03:40:28;;;;;;;2.10;0.97;;;12.80;99.90;;;;;;4977536;28;20176;-68
2021/10/06 03:42:53;;;;;;;0.47;0.47;;;12.70;99.90;;;;;;4977414;28;20187;-64
2021/10/06 03:45:19;;;;;;;0.60;0.60;;;12.70;99.90;;;;;;4977434;28;20187;-65
2021/10/06 03:47:45;;;;;;;0.83;0.83;;;12.70;99.90;;;;;;4977732;28;20218;-65
2021/10/06 03:50:12;;;;;;;0.30;0.20;;;12.50;99.90;;;;;;4977450;28;20191;-64
2021/10/06 03:52:38;;;;;;;0.30;0.20;;;12.40;99.90;;;;;;4977860;28;20441;-65
2021/10/06 03:55:06;;;;;;;0.30;0.20;;;12.40;99.90;;;;;;4977522;28;20280;-65
2021/10/06 03:57:31;;;;;;;0.30;0.20;;;12.40;99.90;;;;;;4977395;28;20656;-65
2021/10/06 03:59:57;;;;;;;0.93;0.83;;;12.50;99.90;;;;;;4976994;28;20267;-65
2021/10/06 04:02:22;;;;;;;0.30;0.20;;;12.40;99.90;;;;;;4975997;28;20182;-67
2021/10/06 04:04:48;;;;;;;0.40;0.23;;;12.40;99.90;;;;;;4977126;28;20193;-65
2021/10/06 04:07:14;;;;;;;0.30;0.20;;;12.40;99.90;;;;;;4976147;28;20191;-65
2021/10/06 04:09:39;;;;;;;0.50;0.30;;;12.40;99.90;;;;;;4976861;28;20183;-67
2021/10/06 04:12:05;;;;;;;5.20;2.43;;;12.30;99.90;;;;;;4977166;28;20201;-65
2021/10/06 04:14:30;;;;;;;0.73;0.73;;;12.20;99.90;;;;;;4976796;28;20184;-65
2021/10/06 04:16:56;;;;;;;0.50;0.40;;;12.10;99.90;;;;;;4976799;28;20254;-65
2021/10/06 04:19:21;;;;;;;0.70;0.70;;;12.10;99.90;;;;;;4976564;28;20250;-65
2021/10/06 04:21:47;;;;;;;2.03;1.20;;;11.90;99.90;;;;;;4976731;28;20568;-65
2021/10/06 04:24:12;;;;;;;0.30;0.20;;;12.00;99.90;;;;;;4976763;28;20550;-65
2021/10/06 04:26:38;;;;;;;0.30;0.23;;;11.90;99.90;;;;;;4976668;28;20195;-64
2021/10/06 04:29:03;;;;;;;0.30;0.30;;;11.90;99.90;;;;;;4975260;28;20315;-64
2021/10/06 04:31:29;;;;;;;0.30;0.20;;;11.70;99.90;;;;;;4976499;28;20211;-65
2021/10/06 04:33:55;;;;;;;0.30;0.20;;;11.70;99.90;;;;;;4976679;28;20386;-65
2021/10/06 04:36:20;;;;;;;2.10;2.00;;;11.80;99.90;;;;;;4976520;28;20187;-65
2021/10/06 04:38:46;;;;;;;0.30;0.20;;;11.80;99.90;;;;;;4976200;28;20234;-65
2021/10/06 04:41:11;;;;;;;1.93;0.97;;;11.70;99.90;;;;;;4976368;28;20183;-65
2021/10/06 04:43:37;;;;;;;0.30;0.20;;;11.70;99.90;;;;;;4976316;28;20557;-65
2021/10/06 04:46:03;;;;;;;0.33;0.27;;;11.60;99.90;;;;;;4976481;28;20207;-65
2021/10/06 04:48:29;;;;;;;1.20;1.10;;;11.60;99.90;;;;;;4975051;28;20442;-65
2021/10/06 04:50:54;;;;;;;0.93;0.43;;;11.50;99.90;;;;;;4976222;28;20493;-65
2021/10/06 04:53:20;;;;;;;0.70;0.70;;;11.40;99.90;;;;;;4975490;28;20254;-65
2021/10/06 04:55:46;;;;;;;0.40;0.40;;;11.40;99.90;;;;;;4975414;28;20191;-65
2021/10/06 04:58:11;;;;;;;1.40;1.05;;;11.30;99.90;;;;;;4975719;28;20212;-65
2021/10/06 05:00:37;;;;;;;0.40;0.30;;;11.30;99.90;;;;;;4975797;28;20185;-65
2021/10/06 05:03:20;;;;;;;0.43;0.40;;;11.30;99.90;;;;;;4976159;28;20241;-65
2021/10/06 05:05:46;;;;;;;0.30;0.30;;;11.20;99.90;;;;;;4975903;28;20184;-65
2021/10/06 05:08:12;;;;;;;0.30;0.20;;;11.30;99.90;;;;;;4975653;28;20242;-65
2021/10/06 05:10:37;;;;;;;0.30;0.20;;;11.40;99.90;;;;;;4975770;28;20206;-65
2021/10/06 05:13:03;;;;;;;0.63;0.63;;;11.40;99.90;;;;;;4975834;28;20191;-66
2021/10/06 05:15:29;;;;;;;0.30;0.20;;;11.40;99.90;;;;;;4975628;28;20194;-68
2021/10/06 05:17:55;;;;;;;0.83;0.83;;;11.40;99.90;;;;;;4975287;28;20470;-69
2021/10/06 05:20:20;;;;;;;0.30;0.20;;;11.40;99.90;;;;;;4975421;28;20962;-69
2021/10/06 05:22:46;;;;;;;0.30;0.30;;;11.30;99.90;;;;;;4976176;28;20203;-68
2021/10/06 05:25:11;;;;;;;0.70;0.40;;;11.30;99.90;;;;;;4975560;28;20612;-68
2021/10/06 05:27:37;;;;;;;0.40;0.40;;;11.30;99.90;;;;;;4975280;28;20261;-69
2021/10/06 05:30:08;;;;;;;2.17;1.75;;;11.20;99.90;;;;;;4975291;28;20180;-69
2021/10/06 05:32:34;;;;;;;3.70;2.10;;;11.10;99.90;;;;;;4975473;28;20194;-68
2021/10/06 05:34:59;;;;;;;0.38;0.38;;;11.10;99.90;;;;;;4975479;28;20179;-65
2021/10/06 05:37:26;;;;;;;4.20;1.73;;;11.10;99.90;;;;;;4975176;28;20203;-65
2021/10/06 05:39:51;;;;;;;0.50;0.50;;;11.10;99.90;;;;;;4975535;28;20238;-64
2021/10/06 05:42:17;;;;;;;0.20;0.10;;;11.00;99.90;;;;;;4956710;28;20188;-65
2021/10/06 05:44:42;;;;;;;0.30;0.20;;;11.10;99.90;;;;;;4955925;28;20199;-65
2021/10/06 05:47:08;;;;;;;0.63;0.63;;;11.00;99.90;;;;;;4956363;28;20180;-65
2021/10/06 05:49:34;;;;;;;0.30;0.20;;;11.00;99.90;;;;;;4956444;28;20231;-65
2021/10/06 05:51:59;;;;;;;1.13;1.03;;;11.00;99.90;;;;;;4956929;28;20184;-65
2021/10/06 05:54:25;;;;;;;0.30;0.30;;;11.00;99.90;;;;;;4960245;28;20227;-65
2021/10/06 05:56:50;;;;;;;3.40;3.13;;;11.00;99.90;;;;;;4956390;28;20219;-65
2021/10/06 05:59:16;;;;;;;0.20;0.10;;;11.10;99.90;;;;;;4955981;29;20184;-65
2021/10/06 06:01:41;;;;;;;0.80;0.67;;;11.30;99.90;;;;;;4956305;28;20196;-66
2021/10/06 06:04:07;;;;;;;0.47;0.47;;;11.40;99.90;;;;;;4956224;28;20192;-66
2021/10/06 06:06:32;;;;;;;0.50;0.40;;;11.70;99.90;;;;;;4956243;28;20191;-65
2021/10/06 06:08:58;;;;;;;0.30;0.20;;;11.70;99.90;;;;;;4954962;29;20262;-65
2021/10/06 06:11:25;;;;;;;0.53;0.53;;;11.80;99.90;;;;;;4955565;28;20187;-65
2021/10/06 06:13:50;;;;;;;3.53;2.20;;;11.80;99.90;;;;;;4955685;28;20483;-66
2021/10/06 06:16:16;;;;;;;0.70;0.50;;;11.80;99.90;;;;;;4955797;28;20216;-65
2021/10/06 06:18:42;;;;;;;1.97;1.80;;;11.70;99.90;;;;;;4955617;29;20294;-65
2021/10/06 06:21:07;;;;;;;1.33;1.27;;;11.60;99.90;;;;;;4956079;28;20181;-65
2021/10/06 06:23:33;;;;;;;0.60;0.60;;;11.60;99.90;;;;;;4956115;28;20218;-65
2021/10/06 06:25:59;;;;;;;0.40;0.30;;;11.70;99.90;;;;;;4955876;28;20806;-65
2021/10/06 06:28:25;;;;;;;0.20;0.20;;;11.80;99.90;;;;;;4954545;28;20290;-68
2021/10/06 06:30:51;;;;;;;0.87;0.60;;;11.80;99.90;;;;;;4967414;28;20219;-68
2021/10/06 06:33:16;;;;;;;1.37;1.27;;;12.10;99.90;;;;;;4967243;28;20255;-69
2021/10/06 06:35:42;;;;;;;0.40;0.30;;;12.00;99.90;;;;;;4959681;29;20196;-68
2021/10/06 06:38:07;;;;;;;2.40;1.97;;;11.90;99.90;;;;;;4974702;28;20269;-68
2021/10/06 06:40:33;;;;;;;0.70;0.70;;;12.00;99.90;;;;;;4978958;28;20187;-68
2021/10/06 06:42:59;;;;;;;0.30;0.20;;;12.10;99.90;;;;;;4964300;28;20184;-69
2021/10/06 06:45:24;;;;;;;0.30;0.30;;;12.10;99.90;;;;;;4959551;28;20184;-69
2021/10/06 06:47:50;;;;;;;0.30;0.30;;;12.10;99.90;;;;;;4958718;29;20537;-68
2021/10/06 06:50:18;;;;;;;1.47;1.37;;;12.20;99.90;;;;;;4958498;28;20215;-67
2021/10/06 06:52:44;;;;;;;0.80;0.65;;;12.10;99.90;;;;;;4958506;28;20199;-67
2021/10/06 06:55:09;;;;;;;0.60;0.40;;;12.20;99.90;;;;;;4959076;28;20192;-68
2021/10/06 06:57:35;;;;;;;3.53;2.70;;;12.20;99.90;;;;;;4958707;29;20943;-67
2021/10/06 07:00:01;;;;;;;2.53;1.57;;;12.20;99.90;;;;;;4958604;29;20176;-68
2021/10/06 07:02:26;;;;;;;1.13;1.03;;;12.30;99.90;;;;;;4958828;29;20183;-65
2021/10/06 07:04:52;;;;;;;0.30;0.20;;;12.30;99.90;;;;;;4957905;29;20530;-67
2021/10/06 07:07:18;;;;;;;0.30;0.20;;;12.40;99.90;;;;;;4958878;29;20184;-65
2021/10/06 07:09:47;;;;;;;2.73;1.63;;;12.40;99.90;;;;;;4958249;29;20638;-64
2021/10/06 07:12:18;;;;;;;1.38;1.27;;;12.50;99.90;;;;;;4957666;29;20180;-65
2021/10/06 07:14:45;;;;;;;0.30;0.17;;;12.40;99.90;;;;;;4957517;29;20199;-65
2021/10/06 07:17:11;;;;;;;0.30;0.20;;;12.60;99.90;;;;;;4958431;28;20204;-65
2021/10/06 07:19:37;;;;;;;2.83;1.43;;;12.70;99.90;;;;;;4957494;29;20230;-65
2021/10/06 07:22:04;;;;;;;2.45;1.10;;;12.80;99.90;;;;;;4957654;29;20176;-64
2021/10/06 07:24:29;;;;;;;0.40;0.30;;;12.70;99.90;;;;;;4958446;28;20183;-64
2021/10/06 07:26:55;;;;;;;0.40;0.33;;;12.70;99.90;;;;;;4958332;28;20512;-64
2021/10/06 07:29:20;;;;;;;0.30;0.20;;;12.70;99.90;;;;;;4957912;28;20206;-64
2021/10/06 07:31:46;;;;;;;0.40;0.30;;;12.80;99.90;;;;;;4958530;29;20188;-68
2021/10/06 07:34:12;;;;;;;0.30;0.10;;;12.80;99.90;;;;;;4958446;29;20184;-67
2021/10/06 07:36:38;;;;;;;0.73;0.70;;;13.00;99.90;;;;;;4958202;28;20184;-68
2021/10/06 07:39:05;;;;;;;0.53;0.40;;;13.00;99.90;;;;;;4957759;28;20486;-68
2021/10/06 07:41:31;;;;;;;1.02;1.00;;;13.10;99.90;;;;;;4956557;28;20588;-68
2021/10/06 07:43:57;;;;;;;1.40;1.30;;;13.10;99.90;;;;;;4958022;28;20188;-69
2021/10/06 07:46:23;;;;;;;0.30;0.20;;;13.20;99.90;;;;;;4958230;29;20266;-67
2021/10/06 07:48:49;;;;;;;1.03;0.80;;;13.20;99.90;;;;;;4958230;28;20185;-64
2021/10/06 07:51:14;;;;;;;0.57;0.57;;;13.30;99.90;;;;;;4958080;29;20184;-64
2021/10/06 07:53:40;;;;;;;0.30;0.20;;;13.30;81.70;;;;;;4956838;29;20215;-67
2021/10/06 07:56:06;;;;;;;3.63;0.40;;;13.40;91.60;;;;;;4957842;28;20618;-65
2021/10/06 07:58:32;;;;;;;1.67;0.93;;;13.40;26.30;;;;;;4957589;29;20224;-67
2021/10/06 08:01:00;;;;;;;0.30;0.20;;;13.40;13.10;;;;;;4958902;29;20210;-64
2021/10/06 08:03:26;;;;;;;0.55;0.40;;;13.50;1.00;;;;;;4957441;29;20184;-64
2021/10/06 08:05:52;;;;;;;0.30;0.20;;;13.70;1.00;;;;;;4957597;28;20618;-63
2021/10/06 08:08:17;;;;;;;0.30;0.20;;;13.90;1.00;;;;;;4957549;28;20180;-63
2021/10/06 08:10:43;;;;;;;0.30;0.20;;;13.90;1.00;;;;;;4957410;28;20281;-64
2021/10/06 08:13:09;;;;;;;0.37;0.33;;;14.10;1.00;;;;;;4957170;29;20176;-64
2021/10/06 08:15:36;;;;;;;0.60;0.53;;;14.30;1.00;;;;;;4957911;29;20184;-65
2021/10/06 08:18:02;;;;;;;1.20;1.10;;;14.40;1.00;;;;;;4958064;28;20983;-66
2021/10/06 08:20:32;;;;;;;0.30;0.17;;;14.30;1.00;;;;;;4958682;28;20634;-64
2021/10/06 08:23:03;;;;;;;2.15;1.65;;;14.10;1.00;;;;;;4957937;28;20570;-64
2021/10/06 08:25:29;;;;;;;1.00;1.00;;;14.20;1.00;;;;;;4958253;29;20572;-67
2021/10/06 08:27:55;;;;;;;1.05;0.57;;;14.20;1.00;;;;;;4957470;28;20199;-65
2021/10/06 08:30:22;;;;;;;0.30;0.20;;;14.30;1.00;;;;;;4957387;28;20194;-67
2021/10/06 08:32:47;;;;;;;0.40;0.30;;;14.40;1.00;;;;;;4957478;29;20184;-67
2021/10/06 08:35:13;;;;;;;0.40;0.30;;;14.40;1.00;;;;;;4957156;29;20235;-68
2021/10/06 08:37:39;;;;;;;0.53;0.53;;;14.40;1.00;;;;;;4955898;28;20310;-67
2021/10/06 08:40:05;;;;;;;0.40;0.30;;;14.40;1.00;;;;;;4956619;29;20263;-68
2021/10/06 08:42:32;;;;;;;0.60;0.60;;;14.60;1.00;;;;;;4956837;28;20618;-65
2021/10/06 08:45:05;;;;;;;0.50;0.50;;;14.80;99.90;;;;;;4957076;28;20545;-69
2021/10/06 08:47:32;;;;;;;0.40;0.20;;;14.90;99.90;;;;;;4956793;29;20637;-69
2021/10/06 08:49:58;;;;;;;0.50;0.40;;;15.10;99.90;;;;;;4956049;29;20526;-68
2021/10/06 08:52:23;;;;;;;0.40;0.27;;;15.50;1.00;;;;;;4956550;28;20180;-66
2021/10/06 08:54:49;;;;;;;0.50;0.37;;;15.40;1.00;;;;;;4956792;28;20263;-65
2021/10/06 08:57:18;;;;;;;0.70;0.70;;;15.30;99.90;;;;;;4955771;29;20208;-65
2021/10/06 08:59:44;;;;;;;1.42;1.33;;;15.30;1.00;;;;;;4956745;28;20172;-67
2021/10/06 09:02:14;;;;;;;0.60;0.47;;;15.30;1.00;;;;;;4956754;28;20200;-66
2021/10/06 09:04:40;;;;;;;0.40;0.20;;;15.30;99.90;;;;;;4956924;29;20172;-65
2021/10/06 09:07:06;;;;;;;0.50;0.50;;;15.30;99.90;;;;;;4955634;29;20526;-69
2021/10/06 09:09:34;;;;;;;0.40;0.20;;;15.20;99.90;;;;;;4956935;28;20260;-68
2021/10/06 09:12:00;;;;;;;3.47;2.40;;;15.50;99.90;;;;;;4956886;29;20616;-69
2021/10/06 09:14:30;;;;;;;0.40;0.20;;;15.60;99.90;;;;;;4956477;28;20173;-69
2021/10/06 09:17:15;;;;;;;0.40;0.20;;;15.80;99.90;;;;;;4956656;29;20211;-68
2021/10/06 09:19:53;;;;;;;0.50;0.30;;;15.50;99.90;;;;;;4957386;29;20180;-64
2021/10/06 09:22:21;;;;;;;0.50;0.43;;;15.60;1.00;;;;;;4956837;28;20262;-64
2021/10/06 09:24:54;;;;;;;0.40;0.20;;;15.50;99.90;;;;;;4956441;28;20191;-67
2021/10/06 09:27:26;;;;;;;0.40;0.20;;;15.40;58.50;;;;;;4956087;28;20200;-65
2021/10/06 09:30:02;;;;;;;1.52;1.15;;;15.50;1.00;;;;;;4955911;28;20181;-68
2021/10/06 09:32:48;;;;;;;0.40;0.30;;;15.40;99.90;;;;;;4956463;28;20180;-68
2021/10/06 09:35:15;;;;;;;0.40;0.20;;;15.50;1.00;;;;;;4955773;28;20192;-66
2021/10/06 09:37:48;;;;;;;0.40;0.20;;;15.60;99.90;;;;;;4956555;28;20266;-66
2021/10/06 09:40:16;;;;;;;0.60;0.35;;;16.00;1.00;;;;;;4956370;28;20185;-66
2021/10/06 09:42:50;;;;;;;0.60;0.50;;;15.90;99.90;;;;;;4956079;29;20720;-68
2021/10/06 09:45:38;;;;;;;1.30;1.15;;;16.00;99.90;;;;;;4957106;28;20218;-65
2021/10/06 09:48:06;;;;;;;0.40;0.20;;;15.60;99.90;;;;;;4952768;29;20188;-65
2021/10/06 09:50:34;;;;;;;0.40;0.10;;;15.60;99.90;;;;;;4940547;29;20274;-68
2021/10/06 09:53:10;;;;;;;0.40;0.20;;;15.70;99.90;;;;;;4956927;28;20271;-66
2021/10/06 09:56:02;;;;;;;0.75;0.75;;;15.70;99.90;;;;;;4955962;28;20254;-68
2021/10/06 09:58:28;;;;;;;0.40;0.20;;;15.50;1.00;;;;;;4955353;28;20226;-65
2021/10/06 10:00:56;;;;;;;0.40;0.20;;;15.60;1.00;;;;;;4956240;28;20176;-66
2021/10/06 10:03:21;;;;;;;1.00;0.55;;;16.00;1.00;;;;;;4955951;28;20316;-67
2021/10/06 10:05:47;;;;;;;0.40;0.23;;;16.20;99.90;;;;;;4954985;29;20197;-66
2021/10/06 10:08:13;;;;;;;0.67;0.40;;;16.50;1.00;;;;;;4956353;28;20223;-68
2021/10/06 10:10:39;;;;;;;0.70;0.50;;;16.60;1.00;;;;;;4955488;29;20640;-68
2021/10/06 10:13:06;;;;;;;2.30;0.82;;;16.60;1.00;;;;;;4955642;28;20196;-64
2021/10/06 10:15:31;;;;;;;6.13;1.40;;;16.50;99.90;;;;;;4955821;28;20194;-67
2021/10/06 10:18:04;;;;;;;0.60;0.60;;;16.70;99.90;;;;;;4955443;29;20956;-64
2021/10/06 10:20:33;;;;;;;0.50;0.30;;;16.50;99.90;;;;;;4954587;29;20188;-67
2021/10/06 10:23:04;;;;;;;0.47;0.38;;;16.60;1.00;;;;;;4955519;28;20192;-64
2021/10/06 10:25:32;;;;;;;0.50;0.30;;;16.90;99.90;;;;;;4955460;28;20260;-67
2021/10/06 10:28:17;;;;;;;0.40;0.20;;;16.80;99.90;;;;;;4954390;29;20596;-67
2021/10/06 10:30:54;;;;;;;0.50;0.50;;;17.00;1.00;;;;;;4955316;28;20431;-66
2021/10/06 10:33:51;;;;;;;1.15;0.73;;;17.00;1.00;;;;;;4955578;28;20423;-67
2021/10/06 10:36:33;;;;;;;1.77;0.77;;;17.10;1.00;;;;;;4954620;29;20341;-68
2021/10/06 10:39:00;;;;;;;0.40;0.20;;;16.60;1.00;;;;;;4955010;28;20358;-66
2021/10/06 10:41:52;;;;;;;0.40;0.20;;;16.60;99.90;;;;;;4955509;28;20180;-68
2021/10/06 10:44:25;;;;;;;3.42;1.75;;;16.60;1.00;;;;;;4955994;28;20187;-65
2021/10/06 10:46:57;;;;;;;0.40;0.20;;;16.70;1.00;;;;;;4955528;28;20212;-68
2021/10/06 10:49:24;;;;;;;1.65;0.63;;;16.90;1.00;;;;;;4955276;29;20510;-65
2021/10/06 10:51:57;;;;;;;0.40;0.20;;;17.20;99.90;;;;;;4955672;29;20184;-65
2021/10/06 10:54:37;;;;;;;0.50;0.20;;;17.30;44.50;;;;;;4955753;28;20420;-65
2021/10/06 10:57:23;;;;;;;0.50;0.38;;;16.70;99.90;;;;;;4955505;28;20191;-66
2021/10/06 10:59:50;;;;;;;0.40;0.20;;;16.50;99.90;;;;;;4955620;28;20235;-68
2021/10/06 11:02:21;;;;;;;0.40;0.20;;;16.30;1.00;;;;;;4955734;28;20303;-67
2021/10/06 11:04:55;;;;;;;0.65;0.60;;;16.30;99.90;;;;;;4955143;28;20270;-67
2021/10/06 11:07:22;;;;;;;1.70;1.60;;;16.20;99.90;;;;;;4954959;29;20496;-67
2021/10/06 11:09:54;;;;;;;0.40;0.20;;;15.90;1.00;;;;;;4954828;29;20180;-68
2021/10/06 11:12:20;;;;;;;0.40;0.20;;;16.10;25.80;;;;;;4955079;28;20258;-68
2021/10/06 11:14:48;;;;;;;0.40;0.20;;;16.20;1.00;;;;;;4955169;28;20645;-68
2021/10/06 11:17:19;;;;;;;0.40;0.20;;;16.20;99.90;;;;;;4957487;28;20184;-67
2021/10/06 11:19:56;;;;;;;0.50;0.30;;;16.30;1.00;;;;;;4958055;28;20713;-68
2021/10/06 11:22:21;;;;;;;0.40;0.20;;;16.50;37.10;;;;;;4958689;28;20180;-66
2021/10/06 11:24:48;;;;;;;0.97;0.60;;;16.80;1.00;;;;;;4957932;29;20184;-68
2021/10/06 11:27:14;;;;;;;1.10;0.37;;;17.10;99.90;;;;;;4958531;28;20200;-67
2021/10/06 11:29:44;;;;;;;0.40;0.20;;;16.90;99.90;;;;;;4958193;28;20518;-68
2021/10/06 11:32:10;;;;;;;1.15;0.40;;;16.80;99.90;;;;;;4958356;29;20185;-69
2021/10/06 11:34:55;;;;;;;0.67;0.40;;;16.50;99.90;;;;;;4958274;28;20183;-67
2021/10/06 11:37:27;;;;;;;0.40;0.20;;;16.30;99.90;;;;;;4957964;28;20860;-67
2021/10/06 11:39:54;;;;;;;0.50;0.30;;;16.40;1.00;;;;;;4958389;29;20185;-68
2021/10/06 11:42:30;;;;;;;0.40;0.10;;;16.50;99.90;;;;;;4957016;29;20220;-69
2021/10/06 11:44:56;;;;;;;0.40;0.20;;;16.70;99.90;;;;;;4958323;29;20247;-67
2021/10/06 11:47:21;;;;;;;0.40;0.10;;;16.50;99.90;;;;;;4957691;29;20618;-67
2021/10/06 11:49:51;;;;;;;0.40;0.20;;;16.50;1.00;;;;;;4957799;28;20184;-64
2021/10/06 11:52:23;;;;;;;0.40;0.20;;;16.70;1.00;;;;;;4958429;29;20635;-67
2021/10/06 11:54:53;;;;;;;1.13;1.03;;;17.20;99.90;;;;;;4958000;28;20515;-64
2021/10/06 11:57:19;;;;;;;0.60;0.53;;;16.90;91.70;;;;;;4957699;29;20793;-65
2021/10/06 11:59:46;;;;;;;0.40;0.30;;;16.80;99.90;;;;;;4957471;29;20419;-67
2021/10/06 12:02:14;;;;;;;0.40;0.20;;;16.60;99.90;;;;;;4957569;29;20195;-65
2021/10/06 12:04:43;;;;;;;0.40;0.20;;;16.60;1.00;;;;;;4957840;29;20424;-64
2021/10/06 12:07:11;;;;;;;1.57;1.43;;;16.70;99.90;;;;;;4957891;28;20180;-65
2021/10/06 12:09:41;;;;;;;0.50;0.30;;;16.70;1.00;;;;;;4957356;28;20490;-69
2021/10/06 12:12:08;;;;;;;0.50;0.20;;;16.70;99.90;;;;;;4957861;28;20428;-65
2021/10/06 12:14:42;;;;;;;0.40;0.20;;;16.60;1.00;;;;;;4957589;28;20243;-65
2021/10/06 12:17:11;;;;;;;1.17;0.40;;;16.60;1.00;;;;;;4957592;28;20479;-65
2021/10/06 12:19:38;;;;;;;7.73;1.93;;;16.50;99.90;;;;;;4957235;28;20490;-65
2021/10/06 12:22:05;;;;;;;1.60;0.63;;;16.40;99.90;;;;;;4957328;28;20925;-64
2021/10/06 12:24:31;;;;;;;0.50;0.20;;;16.20;1.00;;;;;;4957472;28;20443;-64
2021/10/06 12:26:59;;;;;;;4.17;0.40;;;16.40;1.00;;;;;;4957694;28;20184;-67
2021/10/06 12:29:31;;;;;;;0.40;0.20;;;16.60;1.00;;;;;;4956864;28;20427;-66
2021/10/06 12:32:11;;;;;;;0.50;0.40;;;16.60;99.90;;;;;;4957414;28;20502;-67
2021/10/06 12:34:37;;;;;;;0.40;0.28;;;16.40;1.00;;;;;;4957212;28;20230;-65
2021/10/06 12:37:04;;;;;;;0.70;0.50;;;16.40;1.00;;;;;;4957166;29;20200;-65
2021/10/06 12:39:30;;;;;;;0.50;0.30;;;16.10;99.90;;;;;;4956991;28;20195;-65
2021/10/06 12:41:58;;;;;;;0.40;0.20;;;16.20;1.00;;;;;;4957205;29;20181;-67
2021/10/06 12:44:32;;;;;;;0.50;0.20;;;16.20;7.80;;;;;;4957167;29;20222;-67
2021/10/06 12:46:59;;;;;;;0.70;0.40;;;16.10;99.90;;;;;;4956679;28;20262;-67
2021/10/06 12:49:28;;;;;;;0.40;0.20;;;16.20;99.90;;;;;;4956780;29;20180;-64